Time;durP1;ratioP1;P1;durP2;ratioP2;P2;SDS_P1;SDS_P2;PMS_P1;PMS_P2;Temp;Humidity;BMP_temperature;BMP_pressure;BME280_temperature;BME280_humidity;BME280_pressure;Samples;Min_cycle;Max_cycle;Signal;HPM_P1;HPM_P2
2023/12/12 00:00:11;;;;;;;4.68;1.50;;;14.20;99.90;;;;;;5028925;28;20402;-87
2023/12/12 00:02:36;;;;;;;4.05;1.80;;;14.00;99.90;;;;;;5028688;28;20025;-87
2023/12/12 00:05:02;;;;;;;5.72;1.88;;;14.30;99.90;;;;;;5029514;28;20096;-87
2023/12/12 00:07:27;;;;;;;5.18;2.50;;;14.10;99.90;;;;;;5027419;28;20098;-87
2023/12/12 00:09:53;;;;;;;4.32;1.90;;;14.30;99.90;;;;;;5028789;28;20030;-86
2023/12/12 00:12:18;;;;;;;4.32;2.00;;;14.40;99.90;;;;;;5027733;28;20502;-88
2023/12/12 00:14:44;;;;;;;7.15;2.22;;;14.10;99.90;;;;;;5028360;28;20030;-86
2023/12/12 00:17:10;;;;;;;4.15;1.42;;;14.40;99.90;;;;;;5009424;28;20124;-86
2023/12/12 00:19:41;;;;;;;5.18;1.65;;;14.20;99.90;;;;;;5027837;28;20474;-85
2023/12/12 00:22:07;;;;;;;10.10;2.13;;;14.20;99.90;;;;;;5013237;28;20112;-87
2023/12/12 00:24:32;;;;;;;1.70;1.40;;;14.20;99.90;;;;;;5029968;28;20120;-87
2023/12/12 00:26:58;;;;;;;5.63;2.00;;;14.50;99.90;;;;;;5027265;28;20025;-87
2023/12/12 00:29:23;;;;;;;4.45;1.80;;;14.40;99.90;;;;;;5028563;28;20440;-87
2023/12/12 00:31:49;;;;;;;6.53;2.03;;;14.40;99.90;;;;;;5028736;28;20029;-87
2023/12/12 00:34:14;;;;;;;7.63;2.22;;;14.10;99.90;;;;;;5028434;28;20026;-86
2023/12/12 00:36:41;;;;;;;4.65;2.13;;;14.10;99.90;;;;;;5028394;28;20038;-86
2023/12/12 00:39:07;;;;;;;3.50;1.90;;;14.20;99.90;;;;;;5027623;28;20030;-85
2023/12/12 00:41:33;;;;;;;5.88;1.85;;;14.30;99.90;;;;;;5028244;28;20021;-85
2023/12/12 00:43:59;;;;;;;5.30;1.60;;;14.50;99.90;;;;;;5027721;28;20030;-85
2023/12/12 00:46:25;;;;;;;7.50;1.83;;;14.10;99.90;;;;;;5028169;28;20506;-86
2023/12/12 00:48:51;;;;;;;4.43;1.63;;;14.30;99.90;;;;;;5027466;28;20057;-87
2023/12/12 00:51:16;;;;;;;4.70;1.60;;;14.10;99.90;;;;;;5027372;28;20037;-86
2023/12/12 00:53:42;;;;;;;1.83;1.60;;;14.10;99.90;;;;;;5028002;28;20034;-87
2023/12/12 00:56:08;;;;;;;3.30;1.95;;;14.30;99.90;;;;;;5034823;28;20048;-86
2023/12/12 00:58:33;;;;;;;2.72;1.35;;;14.30;99.90;;;;;;5012925;28;20026;-86
2023/12/12 01:00:59;;;;;;;5.45;1.90;;;14.40;99.90;;;;;;5034646;28;20401;-86
2023/12/12 01:03:26;;;;;;;3.67;1.63;;;14.10;99.90;;;;;;5034403;28;20470;-86
2023/12/12 01:05:51;;;;;;;2.70;1.45;;;14.40;99.90;;;;;;5034589;28;20025;-86
2023/12/12 01:08:17;;;;;;;3.17;1.30;;;14.40;99.90;;;;;;5034460;28;20041;-87
2023/12/12 01:10:43;;;;;;;6.07;1.60;;;14.20;99.90;;;;;;5034679;28;20454;-86
2023/12/12 01:13:08;;;;;;;2.80;1.20;;;14.20;99.90;;;;;;5034191;28;20037;-85
2023/12/12 01:15:34;;;;;;;4.13;1.60;;;14.30;99.90;;;;;;5035061;28;20088;-86
2023/12/12 01:18:00;;;;;;;3.28;1.70;;;14.20;99.90;;;;;;5033492;28;20485;-87
2023/12/12 01:20:25;;;;;;;3.30;1.33;;;14.10;99.90;;;;;;5035360;28;20032;-86
2023/12/12 01:22:51;;;;;;;4.65;1.30;;;14.50;99.90;;;;;;5033601;28;20393;-86
2023/12/12 01:25:16;;;;;;;6.00;1.30;;;14.50;99.90;;;;;;5035225;28;20159;-86
2023/12/12 01:27:42;;;;;;;5.50;1.40;;;14.20;99.90;;;;;;5034446;28;20022;-86
2023/12/12 01:30:08;;;;;;;4.22;2.00;;;14.30;99.90;;;;;;5035505;28;20557;-87
2023/12/12 01:32:33;;;;;;;4.80;1.50;;;14.10;99.90;;;;;;5033389;28;20032;-87
2023/12/12 01:34:59;;;;;;;3.00;1.40;;;14.40;99.90;;;;;;5034055;28;20554;-85
2023/12/12 01:37:26;;;;;;;4.03;1.40;;;14.50;99.90;;;;;;5033354;28;20029;-85
2023/12/12 01:39:51;;;;;;;5.50;1.40;;;14.40;99.90;;;;;;5034549;28;20108;-86
2023/12/12 01:42:17;;;;;;;6.75;1.45;;;14.50;99.90;;;;;;5033609;28;20112;-86
2023/12/12 01:44:43;;;;;;;2.88;1.27;;;14.40;99.90;;;;;;5034616;28;20064;-88
2023/12/12 01:47:10;;;;;;;2.17;1.27;;;14.50;99.90;;;;;;5035373;28;20029;-86
2023/12/12 01:49:36;;;;;;;4.23;1.53;;;13.90;99.90;;;;;;5034131;28;20071;-86
2023/12/12 01:52:02;;;;;;;2.78;1.38;;;14.70;99.90;;;;;;5034260;28;20026;-87
2023/12/12 01:54:28;;;;;;;5.25;1.35;;;14.30;99.90;;;;;;5032299;28;20057;-86
2023/12/12 01:56:54;;;;;;;5.00;1.40;;;14.50;99.90;;;;;;5034003;28;20055;-87
2023/12/12 01:59:22;;;;;;;3.67;1.50;;;14.50;99.90;;;;;;5033155;28;20036;-86
2023/12/12 02:01:48;;;;;;;4.88;1.40;;;14.50;99.90;;;;;;5034058;28;20037;-86
2023/12/12 02:04:15;;;;;;;4.15;1.27;;;14.40;99.90;;;;;;5034237;28;20121;-86
2023/12/12 02:06:44;;;;;;;6.95;1.77;;;14.30;99.90;;;;;;5031967;28;20032;-85
2023/12/12 02:09:11;;;;;;;4.07;1.08;;;14.60;99.90;;;;;;5031687;28;20436;-87
2023/12/12 02:11:36;;;;;;;4.32;1.38;;;14.40;99.90;;;;;;5031851;28;20022;-86
2023/12/12 02:14:02;;;;;;;4.47;1.27;;;14.50;99.90;;;;;;5013185;28;20036;-86
2023/12/12 02:16:27;;;;;;;5.05;1.30;;;14.40;99.90;;;;;;5030591;28;20486;-86
2023/12/12 02:18:53;;;;;;;6.88;1.30;;;14.40;99.90;;;;;;5029938;28;20059;-85
2023/12/12 02:21:20;;;;;;;4.45;1.30;;;14.50;99.90;;;;;;5031349;28;20032;-86
2023/12/12 02:23:47;;;;;;;5.85;1.30;;;14.50;99.90;;;;;;5011934;28;20511;-86
2023/12/12 02:26:13;;;;;;;4.38;1.10;;;14.50;99.90;;;;;;5030899;28;20104;-85
2023/12/12 02:28:40;;;;;;;3.85;1.33;;;14.60;99.90;;;;;;5008301;28;20029;-87
2023/12/12 02:31:06;;;;;;;6.25;1.33;;;14.60;99.90;;;;;;5025497;28;20432;-85
2023/12/12 02:33:32;;;;;;;6.38;1.27;;;14.30;99.90;;;;;;5029490;28;20481;-87
2023/12/12 02:35:57;;;;;;;6.75;1.40;;;14.40;99.90;;;;;;5030516;28;20041;-85
2023/12/12 02:38:23;;;;;;;1.58;1.20;;;14.60;99.90;;;;;;5011868;28;20030;-85
2023/12/12 02:40:48;;;;;;;2.88;1.08;;;14.60;99.90;;;;;;5029604;28;20490;-87
2023/12/12 02:43:14;;;;;;;4.30;1.10;;;14.50;99.90;;;;;;5029430;28;20493;-84
2023/12/12 02:45:40;;;;;;;5.70;1.52;;;14.70;99.90;;;;;;5030066;28;20553;-87
2023/12/12 02:48:05;;;;;;;4.90;1.13;;;14.40;99.90;;;;;;5029718;28;20033;-85
2023/12/12 02:50:31;;;;;;;4.43;0.90;;;14.40;99.90;;;;;;5030656;28;20486;-85
2023/12/12 02:52:57;;;;;;;4.75;1.20;;;14.60;99.90;;;;;;5031014;28;20034;-85
2023/12/12 02:55:22;;;;;;;5.15;1.23;;;14.50;99.90;;;;;;5030590;28;20017;-85
2023/12/12 02:57:48;;;;;;;4.50;0.95;;;14.50;99.90;;;;;;5030938;28;20444;-85
2023/12/12 03:00:14;;;;;;;3.63;0.95;;;14.50;99.90;;;;;;5031734;28;20029;-85
2023/12/12 03:02:40;;;;;;;7.32;1.10;;;14.30;99.90;;;;;;5031528;28;20048;-85
2023/12/12 03:05:06;;;;;;;2.53;0.93;;;14.10;99.90;;;;;;5030956;28;20469;-86
2023/12/12 03:07:31;;;;;;;3.05;0.88;;;14.20;99.90;;;;;;5029839;28;20061;-85
2023/12/12 03:09:57;;;;;;;4.72;0.95;;;14.40;99.90;;;;;;5012137;28;20236;-85
2023/12/12 03:12:22;;;;;;;3.65;0.90;;;14.30;99.90;;;;;;5011657;28;20033;-85
2023/12/12 03:14:49;;;;;;;6.10;0.93;;;14.20;99.90;;;;;;5029559;28;20485;-85
2023/12/12 03:17:14;;;;;;;4.65;1.00;;;14.40;99.90;;;;;;5029158;28;20045;-85
2023/12/12 03:19:40;;;;;;;6.88;1.40;;;14.50;99.90;;;;;;5029814;28;20036;-86
2023/12/12 03:22:05;;;;;;;3.33;1.05;;;14.40;99.90;;;;;;5029012;28;20432;-85
2023/12/12 03:24:31;;;;;;;7.65;1.40;;;14.30;99.90;;;;;;5025085;28;20034;-87
2023/12/12 03:26:56;;;;;;;4.47;0.90;;;14.40;99.90;;;;;;5019154;28;20083;-87
2023/12/12 03:29:22;;;;;;;2.45;1.10;;;14.30;99.90;;;;;;5030055;28;20030;-86
2023/12/12 03:31:47;;;;;;;7.82;1.20;;;14.30;99.90;;;;;;5012311;28;20386;-85
2023/12/12 03:34:13;;;;;;;5.28;1.00;;;14.20;99.90;;;;;;5030856;28;20022;-86
2023/12/12 03:36:42;;;;;;;5.78;1.20;;;14.20;99.90;;;;;;5022179;28;20124;-84
2023/12/12 03:39:09;;;;;;;6.95;1.38;;;14.10;99.90;;;;;;5029442;28;20072;-84
2023/12/12 03:41:35;;;;;;;3.40;0.88;;;14.30;99.90;;;;;;5029667;28;20029;-84
2023/12/12 03:44:00;;;;;;;3.33;1.00;;;14.20;99.90;;;;;;5029742;28;20028;-87
2023/12/12 03:46:26;;;;;;;4.43;1.08;;;14.30;99.90;;;;;;5029559;28;20056;-87
2023/12/12 03:48:52;;;;;;;4.00;1.50;;;14.10;99.90;;;;;;5023871;28;20105;-87
2023/12/12 03:51:17;;;;;;;6.05;1.02;;;14.50;99.90;;;;;;5029375;28;20087;-84
2023/12/12 03:53:43;;;;;;;3.63;1.50;;;14.20;99.90;;;;;;5030199;28;20509;-84
2023/12/12 03:56:09;;;;;;;5.72;1.10;;;14.30;99.90;;;;;;5029740;28;20033;-85
2023/12/12 03:58:35;;;;;;;3.10;1.10;;;14.10;99.90;;;;;;5011738;28;20367;-84
2023/12/12 04:01:00;;;;;;;5.38;1.83;;;14.20;99.90;;;;;;5029718;28;20032;-85
2023/12/12 04:03:26;;;;;;;4.07;1.20;;;14.00;99.90;;;;;;4995449;28;20394;-84
2023/12/12 04:05:51;;;;;;;7.03;1.20;;;14.10;99.90;;;;;;5029464;28;20371;-84
2023/12/12 04:08:17;;;;;;;4.07;1.25;;;14.10;99.90;;;;;;5030268;28;20037;-84
2023/12/12 04:10:43;;;;;;;2.95;1.00;;;13.30;99.90;;;;;;5030310;28;20496;-84
2023/12/12 04:13:09;;;;;;;5.53;1.38;;;14.30;99.90;;;;;;5029302;28;20064;-87
2023/12/12 04:15:35;;;;;;;5.63;1.17;;;14.10;99.90;;;;;;5028882;28;20022;-87
2023/12/12 04:18:01;;;;;;;5.47;1.75;;;14.30;99.90;;;;;;5029350;28;20496;-84
2023/12/12 04:20:26;;;;;;;3.30;1.25;;;14.00;99.90;;;;;;5029408;28;20385;-87
2023/12/12 04:22:52;;;;;;;6.80;1.10;;;14.00;99.90;;;;;;5029506;28;20072;-88
2023/12/12 04:25:19;;;;;;;6.82;1.35;;;14.00;99.90;;;;;;5029950;28;20045;-86
2023/12/12 04:27:45;;;;;;;9.15;1.60;;;13.80;99.90;;;;;;5012414;28;20029;-87
2023/12/12 04:30:11;;;;;;;8.55;1.15;;;13.90;99.90;;;;;;5026385;28;20039;-84
2023/12/12 04:32:36;;;;;;;7.20;1.35;;;13.70;99.90;;;;;;5028650;28;20060;-86
2023/12/12 04:35:05;;;;;;;6.68;1.52;;;13.70;99.90;;;;;;5028965;28;20029;-86
2023/12/12 04:37:30;;;;;;;;;;;13.70;99.90;;;;;;5029526;28;20033;-86
2023/12/12 04:39:56;;;;;;;6.13;1.48;;;13.80;99.90;;;;;;5026608;28;20441;-84
2023/12/12 04:42:23;;;;;;;5.20;1.50;;;13.70;99.90;;;;;;5028755;28;20027;-84
2023/12/12 04:44:49;;;;;;;7.30;1.85;;;13.50;99.90;;;;;;5029818;28;20028;-84
2023/12/12 04:47:15;;;;;;;8.00;1.17;;;13.70;99.90;;;;;;5029709;28;20423;-84
2023/12/12 04:49:41;;;;;;;7.05;1.42;;;13.50;99.90;;;;;;5028644;28;20120;-84
2023/12/12 04:52:06;;;;;;;6.47;1.30;;;13.60;99.90;;;;;;5028724;28;20044;-87
2023/12/12 04:54:32;;;;;;;7.70;1.30;;;13.70;99.90;;;;;;5028953;28;20108;-85
2023/12/12 04:56:58;;;;;;;8.20;1.13;;;13.70;99.90;;;;;;5010954;28;20056;-86
2023/12/12 04:59:24;;;;;;;7.38;1.55;;;13.70;99.90;;;;;;5031137;28;20025;-85
2023/12/12 05:01:49;;;;;;;6.78;1.50;;;13.60;99.90;;;;;;5032868;28;20389;-85
2023/12/12 05:04:15;;;;;;;6.35;1.50;;;13.60;99.90;;;;;;5017292;28;20037;-89
2023/12/12 05:06:41;;;;;;;4.95;1.30;;;13.70;99.90;;;;;;5031149;28;20275;-87
2023/12/12 05:09:06;;;;;;;6.05;1.45;;;13.80;99.90;;;;;;5029076;28;20032;-88
2023/12/12 05:11:32;;;;;;;7.82;1.30;;;13.80;99.90;;;;;;5029005;28;20056;-85
2023/12/12 05:13:58;;;;;;;9.32;1.52;;;13.80;99.90;;;;;;5028678;28;20026;-85
2023/12/12 05:16:24;;;;;;;6.07;1.73;;;13.90;99.90;;;;;;5028578;28;20037;-84
2023/12/12 05:18:49;;;;;;;10.07;1.80;;;13.90;99.90;;;;;;5029542;28;20018;-85
2023/12/12 05:21:16;;;;;;;7.00;1.33;;;13.70;99.90;;;;;;5028289;28;20025;-84
2023/12/12 05:23:42;;;;;;;8.85;1.77;;;13.50;99.90;;;;;;5027273;28;20893;-85
2023/12/12 05:26:08;;;;;;;10.52;2.10;;;13.90;99.90;;;;;;5028831;28;20054;-84
2023/12/12 05:28:33;;;;;;;7.00;1.50;;;13.70;99.90;;;;;;5028721;28;20021;-84
2023/12/12 05:30:59;;;;;;;8.40;1.98;;;13.50;99.90;;;;;;5028652;28;20068;-84
2023/12/12 05:33:25;;;;;;;8.05;2.70;;;13.60;99.90;;;;;;5028691;28;20036;-84
2023/12/12 05:35:50;;;;;;;8.50;1.95;;;13.60;99.90;;;;;;5028479;28;20037;-85
2023/12/12 05:38:16;;;;;;;8.25;1.88;;;14.00;99.90;;;;;;5028535;28;20052;-85
2023/12/12 05:40:42;;;;;;;8.20;1.83;;;13.70;99.90;;;;;;5030056;28;20032;-84
2023/12/12 05:43:08;;;;;;;11.50;1.55;;;13.60;99.90;;;;;;5032425;28;20227;-86
2023/12/12 05:45:34;;;;;;;10.40;1.85;;;13.60;99.90;;;;;;5032044;28;20047;-84
2023/12/12 05:48:03;;;;;;;7.30;1.48;;;13.60;99.90;;;;;;5032208;28;20030;-85
2023/12/12 05:50:29;;;;;;;5.68;1.70;;;13.80;99.90;;;;;;5031916;28;20397;-85
2023/12/12 05:52:54;;;;;;;8.50;2.83;;;13.90;99.90;;;;;;5032133;28;20018;-85
2023/12/12 05:55:20;;;;;;;10.25;3.13;;;13.80;99.90;;;;;;5032819;28;20032;-84
2023/12/12 05:57:45;;;;;;;12.70;3.05;;;13.50;99.90;;;;;;5032060;28;20519;-84
2023/12/12 06:00:11;;;;;;;11.82;2.65;;;13.50;99.90;;;;;;5031954;28;20025;-85
2023/12/12 06:02:37;;;;;;;9.77;1.98;;;13.50;99.90;;;;;;5032035;28;20060;-84
2023/12/12 06:05:07;;;;;;;15.50;2.45;;;13.60;99.90;;;;;;5031909;28;20033;-84
2023/12/12 06:07:36;;;;;;;12.70;2.53;;;13.40;99.90;;;;;;5031895;28;20381;-85
2023/12/12 06:10:04;;;;;;;11.45;2.13;;;13.30;99.90;;;;;;5031803;28;20490;-84
2023/12/12 06:12:30;;;;;;;9.95;1.83;;;13.30;99.90;;;;;;5031771;28;20041;-84
2023/12/12 06:14:56;;;;;;;9.23;1.67;;;13.60;99.90;;;;;;5031687;28;20071;-86
2023/12/12 06:17:22;;;;;;;7.25;1.55;;;13.60;99.90;;;;;;5032556;28;20067;-85
2023/12/12 06:19:48;;;;;;;6.40;1.58;;;13.30;99.90;;;;;;5031602;28;20056;-85
2023/12/12 06:22:13;;;;;;;11.65;2.08;;;13.60;99.90;;;;;;5031674;28;20053;-84
2023/12/12 06:24:39;;;;;;;13.25;2.40;;;13.50;99.90;;;;;;5031527;28;20119;-84
2023/12/12 06:27:04;;;;;;;10.13;1.73;;;13.60;99.90;;;;;;5031517;28;20025;-87
2023/12/12 06:29:30;;;;;;;10.70;2.20;;;13.70;99.90;;;;;;5031497;28;20497;-84
2023/12/12 06:31:56;;;;;;;10.13;3.10;;;13.90;99.90;;;;;;5013662;28;20029;-86
2023/12/12 06:34:21;;;;;;;14.13;3.22;;;13.50;99.90;;;;;;5031802;28;20068;-85
2023/12/12 06:36:47;;;;;;;16.52;3.78;;;13.50;99.90;;;;;;5031297;28;20120;-85
2023/12/12 06:39:14;;;;;;;8.40;2.38;;;13.80;99.90;;;;;;5031250;28;20075;-85
2023/12/12 06:41:40;;;;;;;14.13;3.05;;;13.60;99.90;;;;;;5031308;28;20021;-88
2023/12/12 06:44:06;;;;;;;9.98;2.58;;;13.50;99.90;;;;;;5031284;28;20105;-85
2023/12/12 06:46:31;;;;;;;9.98;2.63;;;13.60;99.90;;;;;;5013384;28;20057;-84
2023/12/12 06:48:57;;;;;;;13.20;2.67;;;13.80;99.90;;;;;;5013330;28;20486;-84
2023/12/12 06:51:23;;;;;;;12.35;3.05;;;13.50;99.90;;;;;;5031497;28;20083;-85
2023/12/12 06:53:49;;;;;;;15.57;3.10;;;13.50;99.90;;;;;;5030453;28;20057;-84
2023/12/12 06:56:14;;;;;;;12.85;3.28;;;13.80;99.90;;;;;;5030947;28;20029;-87
2023/12/12 06:58:40;;;;;;;16.67;3.15;;;13.70;99.90;;;;;;5030949;28;20071;-84
2023/12/12 07:01:08;;;;;;;16.10;3.05;;;13.60;99.90;;;;;;5013226;28;20120;-84
2023/12/12 07:03:34;;;;;;;7.13;1.90;;;13.90;99.90;;;;;;5030841;28;20056;-86
2023/12/12 07:06:02;;;;;;;14.90;2.47;;;13.70;99.90;;;;;;5030847;28;20037;-85
2023/12/12 07:08:28;;;;;;;13.13;2.58;;;13.60;99.90;;;;;;5030827;28;20094;-83
2023/12/12 07:10:53;;;;;;;14.88;2.58;;;13.80;99.90;;;;;;5031620;28;20072;-86
2023/12/12 07:13:19;;;;;;;13.68;2.30;;;13.60;99.90;;;;;;5012882;28;20481;-84
2023/12/12 07:15:45;;;;;;;17.10;2.97;;;13.60;99.90;;;;;;5011990;28;20037;-84
2023/12/12 07:18:12;;;;;;;14.55;3.22;;;13.40;99.90;;;;;;5022539;28;20108;-87
2023/12/12 07:20:38;;;;;;;20.50;3.17;;;13.40;99.90;;;;;;5033773;28;20463;-84
2023/12/12 07:23:04;;;;;;;14.50;2.95;;;13.60;99.90;;;;;;5038021;28;20025;-85
2023/12/12 07:25:30;;;;;;;11.93;2.92;;;13.70;99.90;;;;;;5041722;28;20029;-86
2023/12/12 07:27:55;;;;;;;16.70;2.83;;;13.60;99.90;;;;;;5039723;28;20025;-87
2023/12/12 07:30:21;;;;;;;10.52;2.20;;;13.50;99.90;;;;;;5042420;28;20024;-87
2023/12/12 07:32:47;;;;;;;18.35;2.53;;;13.40;99.90;;;;;;5032826;28;20029;-86
2023/12/12 07:35:12;;;;;;;13.55;2.50;;;13.50;99.90;;;;;;5041635;28;20036;-87
2023/12/12 07:37:38;;;;;;;15.50;2.50;;;13.20;99.90;;;;;;5040338;28;20041;-86
2023/12/12 07:40:06;;;;;;;19.30;2.70;;;13.70;99.90;;;;;;5039326;28;20037;-85
2023/12/12 07:42:31;;;;;;;14.30;2.67;;;13.20;99.90;;;;;;5041054;28;20029;-85
2023/12/12 07:44:57;;;;;;;20.48;3.33;;;13.40;99.90;;;;;;5030566;28;20087;-86
2023/12/12 07:47:23;;;;;;;17.48;3.15;;;13.40;99.90;;;;;;5031116;28;20025;-86
2023/12/12 07:49:49;;;;;;;12.57;2.97;;;13.50;99.90;;;;;;5049746;28;20039;-85
2023/12/12 07:52:15;;;;;;;13.25;2.45;;;13.30;99.90;;;;;;5049765;28;20097;-87
2023/12/12 07:54:42;;;;;;;12.10;2.53;;;13.40;99.90;;;;;;5049821;28;20104;-84
2023/12/12 07:57:08;;;;;;;15.63;3.03;;;13.40;99.90;;;;;;5049482;28;20592;-83
2023/12/12 07:59:34;;;;;;;19.75;3.05;;;13.60;99.90;;;;;;5042476;28;20106;-84
2023/12/12 08:02:00;;;;;;;22.70;3.10;;;13.30;99.90;;;;;;5011982;28;20112;-84
2023/12/12 08:04:26;;;;;;;19.92;3.03;;;13.50;99.90;;;;;;5030455;28;20014;-87
2023/12/12 08:06:52;;;;;;;13.95;2.58;;;13.20;99.90;;;;;;5029645;28;20030;-87
2023/12/12 08:09:17;;;;;;;13.40;2.38;;;13.30;99.90;;;;;;5029145;28;20565;-86
2023/12/12 08:11:43;;;;;;;15.52;2.50;;;13.40;99.90;;;;;;5029290;28;20033;-81
2023/12/12 08:14:08;;;;;;;14.05;3.05;;;13.00;99.90;;;;;;5029238;28;20029;-84
2023/12/12 08:16:34;;;;;;;16.48;2.80;;;13.30;99.90;;;;;;5029286;28;20099;-84
2023/12/12 08:19:00;;;;;;;19.80;3.28;;;13.50;99.90;;;;;;5029849;28;20017;-84
2023/12/12 08:21:26;;;;;;;20.23;2.90;;;13.00;99.90;;;;;;5030011;28;20025;-85
2023/12/12 08:23:54;;;;;;;18.30;2.85;;;13.40;99.90;;;;;;5029141;28;20592;-85
2023/12/12 08:26:20;;;;;;;17.13;3.22;;;13.50;99.90;;;;;;5027982;28;20075;-83
2023/12/12 08:28:48;;;;;;;15.52;3.03;;;13.40;99.90;;;;;;5028882;28;20434;-85
2023/12/12 08:31:14;;;;;;;19.73;3.47;;;13.40;99.90;;;;;;5029100;28;20116;-83
2023/12/12 08:33:39;;;;;;;20.55;3.17;;;13.30;99.90;;;;;;5029094;28;20053;-83
2023/12/12 08:36:06;;;;;;;20.85;3.22;;;13.30;99.90;;;;;;5029069;28;20117;-83
2023/12/12 08:38:31;;;;;;;18.92;3.50;;;13.10;99.90;;;;;;5029016;28;20032;-83
2023/12/12 08:40:57;;;;;;;16.77;3.05;;;13.40;99.90;;;;;;5029580;28;20025;-85
2023/12/12 08:43:23;;;;;;;21.35;3.78;;;13.30;99.90;;;;;;5028753;28;20032;-85
2023/12/12 08:45:50;;;;;;;18.50;3.15;;;13.40;99.90;;;;;;5028630;28;20049;-84
2023/12/12 08:48:15;;;;;;;18.25;3.03;;;13.30;99.90;;;;;;5028504;28;20039;-85
2023/12/12 08:50:41;;;;;;;20.58;2.75;;;13.40;99.90;;;;;;5029070;28;20108;-85
2023/12/12 08:53:07;;;;;;;24.75;3.50;;;13.60;99.90;;;;;;5028578;28;20090;-84
2023/12/12 08:55:34;;;;;;;19.52;3.03;;;13.30;99.90;;;;;;5028428;28;20037;-86
2023/12/12 08:57:59;;;;;;;20.13;3.60;;;13.40;99.90;;;;;;5029387;28;20075;-85
2023/12/12 09:00:25;;;;;;;21.55;3.53;;;13.20;99.90;;;;;;5011150;28;20033;-86
2023/12/12 09:02:50;;;;;;;15.80;3.00;;;13.50;99.90;;;;;;5028827;28;20071;-85
2023/12/12 09:05:16;;;;;;;16.60;2.92;;;13.50;99.90;;;;;;5028566;28;20029;-87
2023/12/12 09:07:42;;;;;;;24.10;4.15;;;13.50;99.90;;;;;;5028762;28;20025;-86
2023/12/12 09:10:08;;;;;;;22.58;3.53;;;13.40;99.90;;;;;;5010839;28;20086;-86
2023/12/12 09:12:34;;;;;;;22.80;3.50;;;13.20;99.90;;;;;;5028656;28;20018;-84
2023/12/12 09:15:01;;;;;;;28.02;4.22;;;13.50;99.90;;;;;;5012232;28;20029;-86
2023/12/12 09:17:27;;;;;;;16.35;3.00;;;13.60;99.90;;;;;;5032430;28;20493;-85
2023/12/12 09:19:52;;;;;;;17.40;3.63;;;13.50;99.90;;;;;;5032461;28;20355;-85
2023/12/12 09:22:18;;;;;;;20.95;2.92;;;13.80;99.90;;;;;;5032229;28;20065;-85
2023/12/12 09:24:43;;;;;;;24.77;3.67;;;13.40;99.90;;;;;;5032391;28;20030;-84
2023/12/12 09:27:09;;;;;;;23.10;4.03;;;13.30;99.90;;;;;;5032384;28;20029;-84
2023/12/12 09:29:34;;;;;;;17.50;3.05;;;13.30;99.90;;;;;;5032430;28;20046;-84
2023/12/12 09:32:00;;;;;;;18.48;3.22;;;13.30;99.90;;;;;;5033306;28;20437;-85
2023/12/12 09:34:25;;;;;;;21.05;3.75;;;13.50;99.90;;;;;;5032341;28;20029;-86
2023/12/12 09:36:51;;;;;;;18.33;2.83;;;13.50;99.90;;;;;;5032335;28;20065;-85
2023/12/12 09:39:20;;;;;;;21.40;3.22;;;13.50;99.90;;;;;;5032056;28;20017;-84
2023/12/12 09:41:46;;;;;;;;;;;13.60;99.90;;;;;;5032423;28;20072;-85
2023/12/12 09:44:15;;;;;;;20.83;3.50;;;13.60;99.90;;;;;;5032100;28;19999;-84
2023/12/12 09:46:42;;;;;;;;;;;13.00;99.90;;;;;;5032122;28;20021;-85
2023/12/12 09:49:09;;;;;;;18.30;3.22;;;13.10;99.90;;;;;;5014202;28;20004;-84
2023/12/12 09:51:35;;;;;;;20.50;3.45;;;13.40;99.90;;;;;;5013802;28;20021;-85
2023/12/12 09:54:06;;;;;;;15.13;3.25;;;13.40;99.90;;;;;;5032554;28;20025;-84
2023/12/12 09:56:33;;;;;;;16.63;3.05;;;13.10;99.90;;;;;;5032481;28;20036;-84
2023/12/12 09:58:58;;;;;;;13.50;3.75;;;13.30;99.90;;;;;;5014049;28;20029;-86
2023/12/12 10:01:26;;;;;;;19.75;3.38;;;13.50;99.90;;;;;;5031771;28;20108;-84
2023/12/12 10:03:54;;;;;;;14.10;2.80;;;13.40;99.90;;;;;;5031779;28;20029;-86
2023/12/12 10:06:22;;;;;;;14.82;2.83;;;13.50;99.90;;;;;;5031973;28;20386;-87
2023/12/12 10:08:48;;;;;;;18.85;3.42;;;13.60;99.90;;;;;;5031462;28;20041;-85
2023/12/12 10:11:14;;;;;;;15.20;2.42;;;13.50;99.90;;;;;;5031620;28;20033;-86
2023/12/12 10:14:06;;;;;;;21.33;3.05;;;13.50;99.90;;;;;;5031348;28;20018;-85
2023/12/12 10:16:32;;;;;;;22.13;3.13;;;13.70;99.90;;;;;;5028551;28;20110;-84
2023/12/12 10:19:03;;;;;;;20.80;3.05;;;13.30;99.90;;;;;;5031338;28;20100;-86
2023/12/12 10:21:29;;;;;;;21.30;3.42;;;13.60;99.90;;;;;;5031504;28;20033;-84
2023/12/12 10:23:56;;;;;;;21.15;3.15;;;13.80;99.90;;;;;;5031265;28;20030;-86
2023/12/12 10:26:29;;;;;;;14.52;2.75;;;13.40;99.90;;;;;;5030766;28;20025;-85
2023/12/12 10:28:56;;;;;;;22.58;3.17;;;13.50;99.90;;;;;;5031035;28;20227;-86
2023/12/12 10:31:22;;;;;;;22.95;3.30;;;13.50;99.90;;;;;;5031420;28;20025;-84
2023/12/12 10:33:51;;;;;;;29.63;4.05;;;13.40;99.90;;;;;;5013236;28;20022;-84
2023/12/12 10:36:17;;;;;;;22.70;3.65;;;13.20;99.90;;;;;;5031267;28;20033;-84
2023/12/12 10:38:44;;;;;;;17.08;3.00;;;13.20;99.90;;;;;;5013465;28;20017;-86
2023/12/12 10:41:10;;;;;;;24.05;3.20;;;13.40;99.90;;;;;;5031156;28;20025;-83
2023/12/12 10:43:42;;;;;;;18.83;3.35;;;13.30;99.90;;;;;;5031245;28;20014;-83
2023/12/12 10:46:13;;;;;;;22.45;3.45;;;13.70;99.90;;;;;;5030563;28;20091;-83
2023/12/12 10:48:46;;;;;;;14.95;2.50;;;13.40;99.90;;;;;;5030269;28;20025;-85
2023/12/12 10:51:14;;;;;;;16.98;3.08;;;13.50;99.90;;;;;;5030913;28;20432;-85
2023/12/12 10:53:44;;;;;;;14.70;3.47;;;13.70;99.90;;;;;;5030876;28;20029;-83
2023/12/12 10:56:14;;;;;;;18.23;2.85;;;13.60;99.90;;;;;;5030653;28;20041;-85
2023/12/12 10:58:42;;;;;;;19.77;3.05;;;13.60;99.90;;;;;;5030101;28;20033;-84
2023/12/12 11:01:08;;;;;;;;;;;13.50;99.90;;;;;;5029972;28;20032;-85
2023/12/12 11:03:36;;;;;;;12.32;2.63;;;13.70;99.90;;;;;;5031476;28;19909;-86
2023/12/12 11:06:04;;;;;;;17.10;2.80;;;13.60;99.90;;;;;;5031571;28;20445;-83
2023/12/12 11:08:30;;;;;;;20.33;3.40;;;13.30;99.90;;;;;;5030927;28;20029;-84
2023/12/12 11:10:56;;;;;;;18.50;3.47;;;13.50;99.90;;;;;;5030704;28;20022;-84
2023/12/12 11:13:32;;;;;;;16.65;2.70;;;13.50;99.90;;;;;;5030666;28;20437;-87
2023/12/12 11:15:59;;;;;;;17.95;3.15;;;13.70;99.90;;;;;;5030614;28;20798;-85
2023/12/12 11:18:26;;;;;;;20.95;3.85;;;13.70;99.90;;;;;;5030589;28;20028;-86
2023/12/12 11:20:51;;;;;;;16.77;3.38;;;13.50;99.90;;;;;;5030566;28;20043;-82
2023/12/12 11:23:42;;;;;;;16.55;3.53;;;13.60;99.90;;;;;;5030516;28;20025;-84
2023/12/12 11:26:12;;;;;;;22.92;3.22;;;13.40;99.90;;;;;;5031518;28;20064;-84
2023/12/12 11:28:38;;;;;;;16.27;4.25;;;13.50;99.90;;;;;;5031321;28;20109;-83
2023/12/12 11:31:04;;;;;;;15.32;2.45;;;13.40;99.90;;;;;;5031238;28;20065;-83
2023/12/12 11:33:30;;;;;;;16.40;2.78;;;13.50;99.90;;;;;;5030295;28;20068;-86
2023/12/12 11:35:56;;;;;;;17.33;2.97;;;13.40;99.90;;;;;;5030140;28;20455;-84
2023/12/12 11:38:34;;;;;;;15.32;3.00;;;13.60;99.90;;;;;;5029774;28;20108;-83
2023/12/12 11:41:15;;;;;;;8.60;2.25;;;13.70;99.90;;;;;;5012342;28;20037;-84
2023/12/12 11:43:41;;;;;;;12.18;2.40;;;13.60;99.90;;;;;;5030156;28;20021;-83
2023/12/12 11:46:20;;;;;;;17.35;3.97;;;13.60;99.90;;;;;;5030861;28;20025;-83
2023/12/12 11:48:46;;;;;;;12.73;2.80;;;13.50;99.90;;;;;;5029953;28;20549;-85
2023/12/12 11:51:33;;;;;;;12.77;2.75;;;14.00;99.90;;;;;;5029989;28;20100;-83
2023/12/12 11:54:08;;;;;;;18.10;2.97;;;13.60;99.90;;;;;;5029844;28;20457;-85
2023/12/12 11:56:34;;;;;;;10.20;2.28;;;13.60;99.90;;;;;;5029800;28;20033;-86
2023/12/12 11:59:00;;;;;;;13.25;2.42;;;13.80;99.90;;;;;;5029840;28;20113;-83
2023/12/12 12:01:26;;;;;;;11.88;2.28;;;13.70;99.90;;;;;;5029770;28;20052;-84
2023/12/12 12:03:52;;;;;;;16.80;2.60;;;13.90;99.90;;;;;;5027490;28;20474;-83
2023/12/12 12:06:18;;;;;;;12.30;2.38;;;14.00;99.90;;;;;;5048264;28;20025;-85
2023/12/12 12:08:44;;;;;;;13.52;2.35;;;14.20;99.90;;;;;;5031812;28;20032;-85
2023/12/12 12:11:11;;;;;;;15.55;2.65;;;14.10;99.90;;;;;;5012582;28;20029;-85
2023/12/12 12:13:41;;;;;;;13.75;2.80;;;14.40;99.90;;;;;;5029941;28;20541;-87
2023/12/12 12:16:11;;;;;;;17.92;2.88;;;14.20;99.90;;;;;;5029848;28;20037;-86
2023/12/12 12:18:37;;;;;;;18.95;3.05;;;13.70;99.90;;;;;;5030305;28;20120;-87
2023/12/12 12:21:03;;;;;;;20.42;3.30;;;14.20;99.90;;;;;;5029284;28;20064;-87
2023/12/12 12:23:32;;;;;;;14.82;3.08;;;14.20;99.90;;;;;;5028684;28;20488;-86
2023/12/12 12:26:00;;;;;;;;;;;14.40;99.90;;;;;;5011891;28;20171;-85
2023/12/12 12:28:35;;;;;;;12.63;2.80;;;14.50;99.90;;;;;;5028928;28;19912;-84
2023/12/12 12:31:02;;;;;;;13.90;2.53;;;14.60;99.90;;;;;;5029179;28;20033;-87
2023/12/12 12:33:35;;;;;;;20.13;4.03;;;14.60;99.90;;;;;;5028767;28;20028;-84
2023/12/12 12:36:01;;;;;;;9.93;2.33;;;14.40;99.90;;;;;;5011451;28;20033;-84
2023/12/12 12:38:28;;;;;;;22.48;4.80;;;14.60;99.90;;;;;;5028572;28;20027;-84